createdAt,value
2018-04-24T00:00:45.886Z,26.50
2018-04-24T00:03:14.302Z,27.37
2018-04-24T00:05:43.279Z,25.63
2018-04-24T00:08:11.927Z,25.83
2018-04-24T00:10:40.543Z,25.97
2018-04-24T00:13:10.268Z,24.40
2018-04-24T00:15:38.862Z,24.70
2018-04-24T00:18:07.893Z,23.60
2018-04-24T00:20:36.535Z,22.40
2018-04-24T00:23:05.011Z,22.53
2018-04-24T00:25:33.527Z,23.07
2018-04-24T00:28:02.090Z,21.00
2018-04-24T00:30:30.633Z,20.40
2018-04-24T00:32:59.139Z,21.77
2018-04-24T00:35:27.693Z,21.00
2018-04-24T00:37:56.673Z,21.30
2018-04-24T00:40:40.610Z,19.70
2018-04-24T00:43:09.495Z,20.70
2018-04-24T00:45:38.016Z,20.70
2018-04-24T00:48:06.687Z,19.90
2018-04-24T00:50:35.685Z,18.87
2018-04-24T00:53:15.834Z,18.73
2018-04-24T00:55:44.240Z,16.63
2018-04-24T00:58:12.636Z,18.07
2018-04-24T01:00:41.060Z,16.57
2018-04-24T01:03:10.191Z,16.60
2018-04-24T01:05:38.698Z,15.93
2018-04-24T01:08:08.020Z,17.70
2018-04-24T01:10:37.237Z,15.87
2018-04-24T01:13:06.091Z,15.30
2018-04-24T01:15:34.694Z,16.70
2018-04-24T01:18:03.922Z,13.87
2018-04-24T01:20:32.869Z,13.87
2018-04-24T01:23:01.613Z,11.40
2018-04-24T01:25:30.134Z,12.07
2018-04-24T01:27:58.662Z,11.13
2018-04-24T01:30:28.153Z,11.47
2018-04-24T01:32:56.780Z,12.23
2018-04-24T01:35:25.336Z,11.60
2018-04-24T01:37:54.172Z,11.30
2018-04-24T01:40:22.660Z,12.47
2018-04-24T01:42:51.172Z,12.60
2018-04-24T01:45:19.648Z,12.80
2018-04-24T01:47:48.345Z,12.47
2018-04-24T01:50:16.848Z,13.27
2018-04-24T01:52:45.276Z,13.33
2018-04-24T01:55:15.270Z,13.17
2018-04-24T01:57:44.014Z,12.93
2018-04-24T02:00:12.710Z,13.43
2018-04-24T02:02:41.820Z,15.03
2018-04-24T02:05:11.655Z,14.37
2018-04-24T02:07:40.356Z,13.40
2018-04-24T02:10:09.444Z,14.50
2018-04-24T02:12:37.918Z,15.00
2018-04-24T02:15:07.234Z,13.80
2018-04-24T02:17:35.657Z,14.13
2018-04-24T02:20:04.065Z,13.30
2018-04-24T02:22:32.561Z,14.77
2018-04-24T02:25:03.554Z,16.63
2018-04-24T02:27:36.322Z,15.20
2018-04-24T02:30:04.904Z,14.83
2018-04-24T02:32:33.567Z,14.67
2018-04-24T02:35:02.502Z,15.50
2018-04-24T02:37:32.713Z,13.33
2018-04-24T02:40:01.723Z,13.97
2018-04-24T02:42:31.757Z,15.47
2018-04-24T02:45:00.270Z,14.37
2018-04-24T02:47:30.435Z,14.13
2018-04-24T02:50:00.750Z,14.20
2018-04-24T02:52:29.319Z,14.17
2018-04-24T02:54:59.266Z,13.27
2018-04-24T02:57:27.746Z,14.27
2018-04-24T03:00:00.530Z,12.10
2018-04-24T03:02:33.312Z,13.10
2018-04-24T03:05:01.804Z,12.40
2018-04-24T03:07:31.534Z,12.17
2018-04-24T03:10:00.066Z,11.90
2018-04-24T03:12:28.577Z,10.83
2018-04-24T03:14:57.643Z,11.20
2018-04-24T03:17:30.189Z,10.93
2018-04-24T03:20:00.853Z,10.50
2018-04-24T03:22:30.105Z,9.47
2018-04-24T03:24:58.586Z,9.67
2018-04-24T03:27:29.458Z,9.17
2018-04-24T03:29:58.069Z,10.43
2018-04-24T03:32:33.677Z,10.13
2018-04-24T03:35:02.187Z,9.93
2018-04-24T03:37:31.184Z,11.13
2018-04-24T03:39:59.567Z,11.20
2018-04-24T03:42:28.042Z,9.37
2018-04-24T03:45:04.958Z,9.93
2018-04-24T03:47:37.306Z,9.20
2018-04-24T03:50:09.655Z,9.87
2018-04-24T03:52:46.744Z,9.13
2018-04-24T03:55:20.185Z,9.43
2018-04-24T03:58:01.038Z,8.97
2018-04-24T04:00:36.606Z,8.40
2018-04-24T04:03:05.026Z,9.13
2018-04-24T04:05:33.727Z,8.97
2018-04-24T04:08:02.156Z,8.97
2018-04-24T04:10:30.537Z,8.70
2018-04-24T04:12:58.960Z,8.80
2018-04-24T04:15:27.321Z,9.63
2018-04-24T04:18:07.626Z,9.50
2018-04-24T04:20:47.803Z,9.40
2018-04-24T04:23:29.060Z,9.90
2018-04-24T04:25:58.403Z,10.17
2018-04-24T04:28:26.774Z,9.73
2018-04-24T04:30:55.205Z,9.60
2018-04-24T04:33:23.690Z,10.07
2018-04-24T04:35:52.128Z,11.03
2018-04-24T04:38:20.547Z,9.30
2018-04-24T04:40:49.094Z,9.50
2018-04-24T04:43:17.460Z,9.37
2018-04-24T04:45:45.926Z,9.50
2018-04-24T04:48:14.369Z,8.60
2018-04-24T04:50:42.841Z,8.00
2018-04-24T04:53:11.234Z,7.47
2018-04-24T04:55:39.610Z,6.87
2018-04-24T04:58:08.122Z,6.50
2018-04-24T05:00:37.436Z,6.50
2018-04-24T05:03:05.943Z,7.23
2018-04-24T05:05:39.259Z,6.80
2018-04-24T05:08:07.703Z,7.00
2018-04-24T05:10:36.099Z,6.20
2018-04-24T05:13:04.467Z,5.90
2018-04-24T05:15:33.417Z,6.20
2018-04-24T05:18:01.802Z,5.97
2018-04-24T05:20:30.238Z,5.47
2018-04-24T05:22:58.629Z,6.43
2018-04-24T05:25:27.425Z,5.33
2018-04-24T05:27:55.792Z,5.33
2018-04-24T05:30:24.182Z,5.50
2018-04-24T05:32:52.554Z,5.33
2018-04-24T05:35:20.916Z,5.00
2018-04-24T05:37:49.271Z,4.80
2018-04-24T05:40:17.661Z,4.23
2018-04-24T05:42:46.074Z,5.00
2018-04-24T05:45:14.477Z,4.93
2018-04-24T05:47:42.938Z,5.20
2018-04-24T05:50:11.327Z,6.07
2018-04-24T05:52:39.780Z,4.43
2018-04-24T05:55:08.195Z,5.60
2018-04-24T05:57:36.589Z,5.70
2018-04-24T06:00:05.909Z,4.73
2018-04-24T06:02:35.124Z,3.43
2018-04-24T06:05:03.775Z,4.77
2018-04-24T06:07:32.162Z,4.00
2018-04-24T06:10:00.531Z,4.13
2018-04-24T06:12:28.893Z,4.50
2018-04-24T06:15:00.950Z,3.50
2018-04-24T06:17:29.231Z,4.27
2018-04-24T06:19:57.630Z,3.60
2018-04-24T06:22:26.108Z,3.77
2018-04-24T06:24:54.473Z,3.23
2018-04-24T06:27:22.994Z,2.83
2018-04-24T06:29:51.350Z,2.77
2018-04-24T06:32:19.737Z,3.07
2018-04-24T06:34:48.116Z,2.83
2018-04-24T06:37:16.514Z,2.87
2018-04-24T06:39:44.962Z,2.73
2018-04-24T06:42:13.360Z,3.13
2018-04-24T06:44:42.407Z,3.07
2018-04-24T06:47:11.717Z,3.10
2018-04-24T06:49:40.169Z,3.10
2018-04-24T06:52:08.861Z,3.20
2018-04-24T06:54:37.284Z,3.33
2018-04-24T06:57:05.783Z,3.67
2018-04-24T06:59:34.160Z,4.10
2018-04-24T07:02:03.405Z,3.47
2018-04-24T07:04:31.838Z,3.83
2018-04-24T07:07:00.218Z,3.60
2018-04-24T07:09:28.896Z,3.53
2018-04-24T07:11:57.366Z,4.20
2018-04-24T07:14:25.727Z,3.30
2018-04-24T07:16:54.181Z,3.90
2018-04-24T07:19:22.531Z,4.00
2018-04-24T07:21:50.897Z,4.10
2018-04-24T07:24:19.325Z,4.17
2018-04-24T07:26:47.708Z,3.50
2018-04-24T07:29:16.075Z,3.90
2018-04-24T07:31:44.425Z,3.80
2018-04-24T07:34:12.829Z,3.83
2018-04-24T07:36:41.226Z,4.27
2018-04-24T07:39:09.613Z,4.07
2018-04-24T07:41:38.159Z,3.47
2018-04-24T07:44:06.560Z,3.20
2018-04-24T07:46:35.023Z,3.90
2018-04-24T07:49:03.398Z,3.97
2018-04-24T07:51:31.832Z,3.00
2018-04-24T07:54:01.133Z,3.13
2018-04-24T07:56:29.591Z,3.10
2018-04-24T07:58:57.949Z,3.10
2018-04-24T08:01:26.331Z,3.10
2018-04-24T08:03:54.694Z,3.47
2018-04-24T08:06:23.061Z,3.10
2018-04-24T08:08:51.430Z,3.87
2018-04-24T08:11:19.776Z,3.47
2018-04-24T08:13:48.329Z,3.53
2018-04-24T08:16:16.693Z,3.90
2018-04-24T08:18:45.084Z,3.80
2018-04-24T08:21:13.496Z,4.00
2018-04-24T08:23:41.860Z,3.53
2018-04-24T08:26:10.227Z,3.13
2018-04-24T08:28:38.574Z,3.50
2018-04-24T08:31:07.022Z,3.53
2018-04-24T08:33:35.422Z,3.40
2018-04-24T08:36:03.810Z,2.83
2018-04-24T08:38:32.202Z,2.63
2018-04-24T08:41:00.600Z,3.33
2018-04-24T08:43:28.950Z,2.90
2018-04-24T08:45:57.329Z,2.40
2018-04-24T08:48:25.757Z,2.20
2018-04-24T08:50:54.167Z,1.70
2018-04-24T08:53:22.534Z,2.03
2018-04-24T08:55:50.905Z,1.80
2018-04-24T08:58:19.307Z,1.73
2018-04-24T09:00:47.866Z,2.53
2018-04-24T09:03:16.279Z,1.20
2018-04-24T09:05:44.646Z,1.47
2018-04-24T09:08:13.034Z,1.30
2018-04-24T09:10:41.452Z,1.37
2018-04-24T09:13:09.853Z,1.70
2018-04-24T09:15:38.248Z,1.20
2018-04-24T09:18:06.642Z,1.83
2018-04-24T09:20:35.022Z,1.30
2018-04-24T09:23:03.402Z,1.60
2018-04-24T09:25:31.788Z,1.83
2018-04-24T09:28:00.192Z,1.80
2018-04-24T09:30:28.600Z,2.10
2018-04-24T09:32:57.026Z,1.70
2018-04-24T09:35:28.229Z,2.10
2018-04-24T09:37:56.679Z,2.10
2018-04-24T09:40:25.085Z,2.07
2018-04-24T09:42:53.518Z,2.20
2018-04-24T09:45:21.934Z,2.27
2018-04-24T09:47:50.348Z,2.50
2018-04-24T09:50:18.715Z,3.00
2018-04-24T09:52:47.105Z,2.67
2018-04-24T09:55:15.472Z,2.20
2018-04-24T09:57:43.830Z,2.80
2018-04-24T10:00:12.298Z,2.57
2018-04-24T10:02:40.736Z,2.63
2018-04-24T10:05:09.089Z,2.70
2018-04-24T10:07:37.470Z,3.50
2018-04-24T10:10:05.883Z,3.27
2018-04-24T10:12:34.266Z,3.40
2018-04-24T10:15:02.634Z,3.00
2018-04-24T10:17:31.004Z,2.97
2018-04-24T10:19:59.396Z,3.17
2018-04-24T10:22:27.819Z,3.30
2018-04-24T10:24:56.212Z,3.03
2018-04-24T10:27:24.619Z,3.13
2018-04-24T10:29:53.017Z,3.43
2018-04-24T10:32:21.376Z,3.10
2018-04-24T10:34:49.754Z,2.70
2018-04-24T10:37:18.283Z,3.43
2018-04-24T10:39:46.805Z,3.37
2018-04-24T10:42:15.211Z,3.30
2018-04-24T10:44:43.586Z,2.97
2018-04-24T10:47:11.964Z,2.90
2018-04-24T10:49:40.338Z,3.40
2018-04-24T10:52:08.710Z,3.73
2018-04-24T10:54:37.074Z,2.90
2018-04-24T10:57:05.513Z,3.20
2018-04-24T10:59:33.904Z,4.33
2018-04-24T11:02:02.264Z,3.20
2018-04-24T11:04:30.627Z,3.87
2018-04-24T11:06:59.015Z,3.20
2018-04-24T11:09:27.404Z,3.20
2018-04-24T11:11:55.869Z,3.10
2018-04-24T11:14:24.187Z,3.70
2018-04-24T11:16:52.581Z,3.40
2018-04-24T11:19:20.993Z,2.80
2018-04-24T11:21:49.367Z,2.40
2018-04-24T11:24:17.717Z,3.17
2018-04-24T11:26:46.197Z,2.80
2018-04-24T11:29:14.530Z,2.60
2018-04-24T11:31:42.921Z,3.20
2018-04-24T11:34:11.414Z,2.47
2018-04-24T11:36:39.898Z,2.57
2018-04-24T11:39:08.449Z,2.03
2018-04-24T11:41:38.690Z,2.40
2018-04-24T11:44:07.234Z,2.00
2018-04-24T11:46:35.721Z,2.40
2018-04-24T11:49:08.048Z,1.93
2018-04-24T11:51:36.448Z,2.30
2018-04-24T11:54:04.800Z,2.70
2018-04-24T11:56:33.317Z,2.00
2018-04-24T11:59:01.731Z,2.43
2018-04-24T12:01:30.090Z,1.70
2018-04-24T12:03:58.518Z,2.27
2018-04-24T12:06:27.702Z,1.80
2018-04-24T12:08:56.110Z,1.73
2018-04-24T12:11:24.526Z,1.87
2018-04-24T12:13:52.935Z,2.10
2018-04-24T12:16:21.339Z,1.63
2018-04-24T12:18:49.745Z,1.50
2018-04-24T12:21:18.134Z,1.77
2018-04-24T12:23:46.488Z,1.90
2018-04-24T12:26:15.148Z,2.17
2018-04-24T12:28:43.564Z,2.20
2018-04-24T12:31:11.965Z,1.90
2018-04-24T12:33:40.386Z,1.80
2018-04-24T12:36:08.806Z,2.03
2018-04-24T12:38:37.224Z,1.83
2018-04-24T12:41:05.622Z,1.60
2018-04-24T12:43:34.009Z,2.77
2018-04-24T12:46:02.483Z,1.70
2018-04-24T12:48:30.885Z,1.70
2018-04-24T12:50:59.289Z,2.07
2018-04-24T12:53:27.777Z,1.87
2018-04-24T12:55:56.166Z,1.90
2018-04-24T12:58:24.791Z,1.93
2018-04-24T13:00:57.518Z,2.07
2018-04-24T13:03:25.963Z,2.60
2018-04-24T13:05:54.361Z,2.30
2018-04-24T13:08:22.735Z,2.23
2018-04-24T13:10:51.206Z,2.70
2018-04-24T13:13:19.607Z,2.37
2018-04-24T13:15:52.621Z,2.57
2018-04-24T13:18:21.010Z,2.80
2018-04-24T13:20:49.398Z,2.10
2018-04-24T13:23:17.776Z,2.77
2018-04-24T13:25:46.198Z,2.17
2018-04-24T13:28:14.541Z,2.80
2018-04-24T13:30:43.054Z,3.40
2018-04-24T13:33:11.426Z,3.10
2018-04-24T13:35:39.831Z,3.50
2018-04-24T13:38:08.316Z,3.60
2018-04-24T13:40:36.718Z,3.10
2018-04-24T13:43:05.112Z,2.93
2018-04-24T13:45:33.503Z,2.83
2018-04-24T13:48:01.930Z,2.93
2018-04-24T13:50:30.365Z,3.03
2018-04-24T13:52:58.829Z,3.10
2018-04-24T13:55:27.295Z,3.10
2018-04-24T13:57:55.636Z,3.10
2018-04-24T14:00:24.043Z,2.90
2018-04-24T14:02:52.407Z,2.67
2018-04-24T14:05:20.819Z,2.90
2018-04-24T14:07:49.239Z,2.67
2018-04-24T14:10:17.678Z,2.93
2018-04-24T14:12:46.078Z,2.63
2018-04-24T14:15:14.547Z,2.87
2018-04-24T14:17:43.014Z,2.70
2018-04-24T14:20:11.402Z,2.47
2018-04-24T14:22:39.781Z,2.93
2018-04-24T14:25:08.173Z,2.97
2018-04-24T14:27:36.570Z,2.90
2018-04-24T14:30:05.045Z,2.70
2018-04-24T14:32:33.467Z,3.13
2018-04-24T14:35:01.920Z,3.13
2018-04-24T14:37:30.334Z,3.20
2018-04-24T14:39:58.712Z,2.43
2018-04-24T14:42:27.116Z,3.10
2018-04-24T14:44:55.617Z,3.60
2018-04-24T14:47:23.991Z,3.07
2018-04-24T14:49:52.367Z,3.00
2018-04-24T14:52:20.761Z,2.90
2018-04-24T14:57:23.827Z,2.77
2018-04-24T14:59:52.242Z,3.30
2018-04-24T15:02:20.717Z,3.20
2018-04-24T15:04:49.075Z,3.53
2018-04-24T15:07:17.440Z,2.63
2018-04-24T15:09:45.811Z,3.00
2018-04-24T15:12:14.253Z,2.80
2018-04-24T15:14:42.633Z,2.80
2018-04-24T15:17:10.999Z,3.10
2018-04-24T15:19:39.472Z,3.20
2018-04-24T15:22:07.844Z,2.60
2018-04-24T15:24:36.287Z,2.63
2018-04-24T15:27:04.663Z,2.40
2018-04-24T15:32:13.390Z,2.60
2018-04-24T15:34:41.752Z,2.27
2018-04-24T15:37:10.212Z,2.63
2018-04-24T15:39:38.624Z,2.90
2018-04-24T15:42:07.053Z,2.50
2018-04-24T15:44:35.467Z,2.47
2018-04-24T15:47:03.875Z,2.60
2018-04-24T15:49:33.402Z,2.37
2018-04-24T15:54:36.306Z,2.27
2018-04-24T15:57:05.578Z,1.97
2018-04-24T15:59:33.999Z,2.30
2018-04-24T16:02:02.788Z,2.37
2018-04-24T16:04:31.207Z,2.50
2018-04-24T16:06:59.621Z,2.23
2018-04-24T16:09:28.093Z,5.73
2018-04-24T16:11:56.490Z,2.33
2018-04-24T16:14:25.111Z,2.43
2018-04-24T16:16:53.690Z,1.90
2018-04-24T16:19:22.520Z,2.80
2018-04-24T16:21:51.183Z,2.00
2018-04-24T16:24:20.860Z,2.50
2018-04-24T16:26:49.883Z,2.40
2018-04-24T16:29:18.460Z,2.23
2018-04-24T16:31:47.035Z,2.20
2018-04-24T16:34:15.702Z,2.27
2018-04-24T16:36:44.683Z,2.40
2018-04-24T16:39:13.619Z,2.20
2018-04-24T16:41:42.384Z,2.30
2018-04-24T16:44:11.002Z,2.20
2018-04-24T16:46:39.743Z,2.40
2018-04-24T16:49:08.340Z,2.53
2018-04-24T16:51:36.760Z,2.60
2018-04-24T16:54:05.240Z,2.10
2018-04-24T16:56:33.642Z,2.10
2018-04-24T16:59:02.026Z,2.20
2018-04-24T17:01:30.425Z,2.53
2018-04-24T17:03:58.826Z,2.70
2018-04-24T17:06:28.078Z,2.87
2018-04-24T17:08:56.577Z,2.37
2018-04-24T17:11:25.102Z,2.57
2018-04-24T17:13:53.428Z,2.40
2018-04-24T17:16:21.850Z,2.60
2018-04-24T17:18:50.238Z,2.30
2018-04-24T17:21:18.618Z,2.20
2018-04-24T17:23:47.001Z,3.27
2018-04-24T17:26:15.383Z,2.37
2018-04-24T17:28:43.769Z,2.47
2018-04-24T17:31:12.126Z,2.40
2018-04-24T17:33:40.638Z,2.63
2018-04-24T17:36:09.030Z,2.70
2018-04-24T17:38:37.501Z,2.70
2018-04-24T17:41:06.201Z,2.50
2018-04-24T17:43:34.611Z,2.90
2018-04-24T17:46:03.026Z,3.13
2018-04-24T17:48:31.453Z,3.53
2018-04-24T17:50:59.870Z,3.23
2018-04-24T17:53:28.257Z,3.27
2018-04-24T17:55:56.733Z,3.00
2018-04-24T17:58:25.101Z,4.20
2018-04-24T18:00:53.579Z,4.03
2018-04-24T18:03:22.030Z,4.40
2018-04-24T18:05:50.506Z,3.60
2018-04-24T18:08:18.942Z,4.00
2018-04-24T18:10:47.330Z,4.13
2018-04-24T18:13:15.712Z,3.17
2018-04-24T18:15:44.109Z,3.50
2018-04-24T18:18:12.503Z,3.27
2018-04-24T18:20:40.941Z,3.23
2018-04-24T18:23:09.322Z,3.20
2018-04-24T18:25:37.824Z,3.50
2018-04-24T18:28:06.257Z,3.60
2018-04-24T18:30:34.640Z,3.50
2018-04-24T18:33:03.156Z,3.40
2018-04-24T18:35:31.540Z,3.37
2018-04-24T18:37:59.983Z,3.47
2018-04-24T18:40:28.339Z,3.73
2018-04-24T18:42:56.740Z,3.47
2018-04-24T18:45:25.194Z,3.60
2018-04-24T18:47:53.595Z,3.80
2018-04-24T18:50:21.994Z,3.80
2018-04-24T18:52:50.394Z,4.10
2018-04-24T18:55:18.829Z,3.73
2018-04-24T18:57:47.274Z,3.80
2018-04-24T19:00:15.654Z,3.93
2018-04-24T19:02:44.067Z,3.77
2018-04-24T19:05:12.463Z,4.37
2018-04-24T19:07:40.868Z,3.80
2018-04-24T19:10:09.296Z,3.67
2018-04-24T19:12:37.700Z,5.50
2018-04-24T19:15:06.145Z,4.30
2018-04-24T19:17:34.553Z,3.53
2018-04-24T19:20:02.956Z,3.90
2018-04-24T19:22:31.415Z,3.20
2018-04-24T19:25:06.141Z,3.40
2018-04-24T19:27:34.577Z,3.80
2018-04-24T19:30:02.979Z,3.67
2018-04-24T19:32:31.411Z,4.43
2018-04-24T19:34:59.796Z,3.70
2018-04-24T19:37:28.205Z,3.50
2018-04-24T19:40:02.254Z,3.63
2018-04-24T19:42:31.179Z,4.33
2018-04-24T19:44:59.630Z,4.20
2018-04-24T19:47:28.084Z,3.80
2018-04-24T19:50:02.241Z,4.03
2018-04-24T19:52:30.651Z,3.60
2018-04-24T19:55:04.702Z,4.53
2018-04-24T19:57:33.108Z,3.50
2018-04-24T20:00:01.557Z,3.07
2018-04-24T20:02:29.935Z,4.17
2018-04-24T20:04:58.338Z,3.70
2018-04-24T20:07:26.747Z,4.20
2018-04-24T20:09:55.150Z,4.30
2018-04-24T20:12:23.591Z,4.53
2018-04-24T20:14:51.961Z,5.20
2018-04-24T20:17:20.318Z,5.33
2018-04-24T20:19:48.759Z,4.27
2018-04-24T20:22:17.162Z,4.60
2018-04-24T20:24:45.550Z,4.63
2018-04-24T20:27:13.942Z,4.50
2018-04-24T20:32:42.469Z,4.30
2018-04-24T20:35:10.842Z,3.70
2018-04-24T20:37:39.220Z,4.50
2018-04-24T20:40:07.713Z,4.40
2018-04-24T20:42:36.110Z,5.40
2018-04-24T20:45:04.512Z,3.97
2018-04-24T20:47:32.995Z,4.80
2018-04-24T20:50:01.377Z,5.27
2018-04-24T20:52:29.820Z,4.60
2018-04-24T20:54:58.268Z,5.00
2018-04-24T20:57:26.884Z,4.30
2018-04-24T20:59:55.268Z,4.30
2018-04-24T21:02:23.747Z,5.20
2018-04-24T21:04:53.048Z,5.60
2018-04-24T21:07:21.491Z,5.00
2018-04-24T21:09:49.877Z,4.67
2018-04-24T21:12:18.254Z,4.97
2018-04-24T21:14:46.747Z,5.40
2018-04-24T21:17:15.157Z,5.73
2018-04-24T21:19:43.574Z,5.00
2018-04-24T21:22:11.977Z,5.67
2018-04-24T21:24:40.347Z,7.70
2018-04-24T21:27:08.725Z,6.90
2018-04-24T21:29:37.086Z,7.63
2018-04-24T21:32:05.475Z,4.97
2018-04-24T21:34:33.880Z,6.73
2018-04-24T21:37:02.346Z,6.43
2018-04-24T21:39:30.765Z,6.20
2018-04-24T21:41:59.149Z,5.87
2018-04-24T21:44:27.615Z,6.30
2018-04-24T21:46:56.034Z,6.57
2018-04-24T21:49:24.494Z,7.33
2018-04-24T21:51:52.903Z,7.50
2018-04-24T21:54:21.322Z,7.40
2018-04-24T21:56:49.724Z,8.17
2018-04-24T21:59:18.142Z,8.87
2018-04-24T22:01:46.747Z,8.73
2018-04-24T22:04:15.090Z,8.73
2018-04-24T22:06:43.578Z,8.50
2018-04-24T22:09:11.978Z,9.80
2018-04-24T22:11:40.406Z,8.90
2018-04-24T22:14:08.875Z,9.20
2018-04-24T22:16:37.257Z,9.10
2018-04-24T22:19:05.610Z,9.03
2018-04-24T22:21:34.073Z,8.60
2018-04-24T22:24:02.446Z,8.73
2018-04-24T22:26:30.822Z,9.73
2018-04-24T22:28:59.207Z,8.60
2018-04-24T22:31:27.566Z,9.00
2018-04-24T22:33:55.918Z,9.00
2018-04-24T22:36:24.295Z,8.57
2018-04-24T22:38:52.752Z,9.07
2018-04-24T22:41:21.127Z,9.00
2018-04-24T22:43:49.562Z,8.63
2018-04-24T22:46:17.966Z,8.70
2018-04-24T22:48:46.427Z,8.23
2018-04-24T22:51:14.817Z,9.20
2018-04-24T22:53:43.274Z,8.93
2018-04-24T22:56:11.652Z,8.90
2018-04-24T22:58:40.058Z,8.60
2018-04-24T23:01:08.460Z,9.40
2018-04-24T23:03:36.821Z,8.50
2018-04-24T23:06:05.619Z,8.70
2018-04-24T23:08:34.026Z,9.20
2018-04-24T23:11:14.115Z,8.83
2018-04-24T23:14:00.300Z,9.33
2018-04-24T23:16:47.194Z,9.37
2018-04-24T23:19:34.051Z,9.30
2018-04-24T23:22:07.881Z,9.90
2018-04-24T23:24:36.244Z,9.30
2018-04-24T23:27:04.687Z,8.10
2018-04-24T23:29:33.064Z,9.07
2018-04-24T23:32:01.445Z,8.57
2018-04-24T23:34:32.358Z,9.47
2018-04-24T23:37:00.765Z,9.73
2018-04-24T23:39:29.166Z,10.00
2018-04-24T23:41:57.556Z,8.40
2018-04-24T23:44:27.457Z,9.10
2018-04-24T23:46:55.870Z,8.93
2018-04-24T23:49:24.223Z,8.87
2018-04-24T23:51:52.594Z,9.50
2018-04-24T23:54:20.985Z,8.80
2018-04-24T23:56:49.447Z,8.70
2018-04-24T23:59:17.884Z,9.50
